Mud Lick, Kentucky
Current Conditions -  °F | °C
As of 12:15 PM on Thursday 18 Dec 2014 (Local Time) from KGLW Reporting Station
Overcast Overcast  
Wind Chill: 28°   Ceiling: 4800
Heat Index: 33°   Visibility: 7mi
Dew Point: 27°   Wind: 6mph
Humidity: 79%   Direction: 350°N
Pressure: 30.25"   Gusts: NA
Location:  36.7279°N, 85.6843°W
Report Text: KGLW 181815Z AUTO 35005KT 7SM SCT015 OVC048 01/M03 A3025 RMK AO2 T00071026
Loading
Personal Weather Stations






























Interactive Weather Map New forecast layout! Learn more

10-Day Weather Forecast

Advertisements
Track Severe Weather on mobile